createdAt,value
2023-04-16T00:06:59.063Z,71.70
2023-04-16T00:17:05.205Z,71.85
2023-04-16T00:27:11.413Z,72.05
2023-04-16T00:37:17.401Z,72.60
2023-04-16T00:47:23.365Z,72.23
2023-04-16T00:57:29.496Z,72.46
2023-04-16T01:07:35.559Z,72.48
2023-04-16T01:17:41.559Z,72.87
2023-04-16T01:27:47.636Z,73.05
2023-04-16T01:37:53.736Z,73.18
2023-04-16T01:47:59.946Z,73.33
2023-04-16T01:58:05.831Z,73.52
2023-04-16T02:08:11.880Z,73.73
2023-04-16T02:18:18.041Z,73.57
2023-04-16T02:28:24.211Z,73.76
2023-04-16T02:38:30.088Z,74.36
2023-04-16T02:48:36.073Z,74.33
2023-04-16T02:58:42.452Z,74.40
2023-04-16T03:08:48.112Z,75.17
2023-04-16T03:18:54.313Z,74.32
2023-04-16T03:29:00.437Z,74.16
2023-04-16T03:39:06.265Z,74.16
2023-04-16T03:49:12.549Z,74.21
2023-04-16T03:59:18.545Z,74.56
2023-04-16T04:09:24.577Z,74.74
2023-04-16T04:29:37.651Z,74.69
2023-04-16T04:39:44.017Z,74.39
2023-04-16T04:49:50.380Z,74.30
2023-04-16T04:59:56.855Z,74.04
2023-04-16T05:10:02.820Z,74.33
2023-04-16T05:20:08.882Z,74.35
2023-04-16T05:30:14.912Z,74.75
2023-04-16T05:40:21.230Z,75.43
2023-04-16T05:50:27.750Z,76.55
2023-04-16T06:00:33.732Z,76.77
2023-04-16T06:10:39.381Z,76.86
2023-04-16T06:20:45.254Z,76.84
2023-04-16T06:30:51.186Z,76.55
2023-04-16T06:40:57.844Z,76.42
2023-04-16T06:51:06.173Z,76.49
2023-04-16T07:01:12.184Z,76.99
2023-04-16T07:11:18.705Z,77.04
2023-04-16T07:21:26.414Z,77.24
2023-04-16T07:31:32.504Z,77.91
2023-04-16T07:41:41.041Z,77.93
2023-04-16T07:51:47.282Z,78.12
2023-04-16T08:01:53.236Z,78.09
2023-04-16T08:12:00.608Z,78.22
2023-04-16T08:22:06.491Z,78.71
2023-04-16T08:32:12.788Z,69.22
2023-04-16T08:42:18.977Z,74.51
2023-04-16T08:52:24.287Z,80.22
2023-04-16T09:02:30.848Z,75.04
2023-04-16T09:12:37.776Z,72.90
2023-04-16T09:22:43.949Z,72.22
2023-04-16T09:32:50.544Z,71.85
2023-04-16T09:42:56.203Z,71.67
2023-04-16T09:53:02.417Z,71.48
2023-04-16T10:03:09.077Z,70.60
2023-04-16T10:13:15.145Z,70.55
2023-04-16T10:23:21.630Z,70.49
2023-04-16T10:33:28.412Z,70.63
2023-04-16T10:43:34.910Z,70.37
2023-04-16T10:53:40.972Z,70.16
2023-04-16T11:03:47.751Z,69.71
2023-04-16T11:13:54.472Z,69.88
2023-04-16T11:24:01.447Z,69.75
2023-04-16T11:34:08.064Z,69.75
2023-04-16T11:44:14.528Z,69.84
2023-04-16T11:54:19.988Z,76.78
2023-04-16T12:04:26.225Z,80.08
2023-04-16T12:14:33.053Z,75.18
2023-04-16T12:24:40.581Z,71.64
2023-04-16T12:34:48.844Z,70.79
2023-04-16T12:44:55.932Z,70.51
2023-04-16T12:55:02.058Z,70.41
2023-04-16T13:05:08.346Z,70.32
2023-04-16T13:15:14.659Z,70.21
2023-04-16T13:25:20.687Z,70.24
2023-04-16T13:35:26.750Z,70.36
2023-04-16T13:45:32.635Z,70.44
2023-04-16T13:55:38.932Z,70.45
2023-04-16T14:05:44.873Z,70.47
2023-04-16T14:15:51.160Z,70.41
2023-04-16T14:25:57.172Z,70.41
2023-04-16T14:36:03.447Z,70.35
2023-04-16T14:46:09.624Z,70.44
2023-04-16T14:56:15.372Z,70.44
2023-04-16T15:06:22.542Z,70.50
2023-04-16T15:16:28.487Z,70.53
2023-04-16T15:26:34.482Z,70.56
2023-04-16T15:36:40.654Z,70.53
2023-04-16T15:46:46.680Z,70.53
2023-04-16T15:56:54.516Z,70.48
2023-04-16T16:07:00.814Z,70.55
2023-04-16T16:17:07.173Z,70.50
2023-04-16T16:27:16.142Z,70.48
2023-04-16T16:37:21.929Z,70.46
2023-04-16T16:47:28.118Z,70.48
2023-04-16T16:57:34.471Z,70.44
2023-04-16T17:07:40.622Z,71.54
2023-04-16T17:17:46.770Z,72.18
2023-04-16T17:27:53.285Z,71.88
2023-04-16T17:38:00.063Z,71.52
2023-04-16T17:48:06.741Z,71.33
2023-04-16T17:58:13.178Z,71.11
2023-04-16T18:08:19.812Z,71.07
2023-04-16T18:18:26.302Z,70.90
2023-04-16T18:28:32.970Z,70.82
2023-04-16T18:38:49.498Z,70.72
2023-04-16T18:48:50.084Z,70.60
2023-04-16T18:58:57.358Z,70.62
2023-04-16T19:09:04.573Z,74.31
2023-04-16T19:19:10.626Z,80.45
2023-04-16T19:29:17.078Z,81.85
2023-04-16T19:39:23.467Z,81.38
2023-04-16T19:49:31.959Z,82.57
2023-04-16T19:59:40.850Z,81.09
2023-04-16T20:09:47.642Z,85.66
2023-04-16T20:19:55.133Z,81.53
2023-04-16T20:30:03.561Z,78.06
2023-04-16T20:40:11.228Z,75.70
2023-04-16T20:50:18.554Z,74.78
2023-04-16T21:00:26.102Z,74.31
2023-04-16T21:10:33.386Z,74.86
2023-04-16T21:20:40.867Z,74.67
2023-04-16T21:30:48.014Z,74.95
2023-04-16T21:40:55.378Z,74.94
2023-04-16T21:51:02.487Z,75.20
2023-04-16T22:01:11.074Z,75.28
2023-04-16T22:11:18.531Z,75.36
2023-04-16T22:21:26.044Z,75.35
2023-04-16T22:31:33.186Z,75.10
2023-04-16T22:41:40.428Z,75.11
2023-04-16T22:51:47.954Z,75.26
2023-04-16T23:01:56.366Z,75.35
2023-04-16T23:12:03.656Z,75.30
2023-04-16T23:22:11.184Z,75.31
2023-04-16T23:32:18.315Z,75.20
2023-04-16T23:42:25.592Z,75.26
2023-04-16T23:52:32.614Z,75.39
